createdAt,value
2022-08-04T00:03:30.369Z,100.00
2022-08-04T00:08:58.187Z,100.00
2022-08-04T00:14:23.255Z,100.00
2022-08-04T00:19:48.891Z,100.00
2022-08-04T00:25:12.461Z,100.00
2022-08-04T00:30:37.030Z,100.00
2022-08-04T00:36:00.860Z,100.00
2022-08-04T00:41:32.550Z,100.00
2022-08-04T00:47:06.444Z,100.00
2022-08-04T00:52:35.320Z,100.00
2022-08-04T00:58:14.051Z,100.00
2022-08-04T01:03:52.450Z,100.00
2022-08-04T01:09:28.740Z,100.00
2022-08-04T01:15:02.409Z,100.00
2022-08-04T01:20:27.918Z,100.00
2022-08-04T01:26:42.094Z,100.00
2022-08-04T01:32:25.360Z,100.00
2022-08-04T01:37:51.823Z,100.00
2022-08-04T01:43:15.542Z,100.00
2022-08-04T01:48:41.340Z,100.00
2022-08-04T01:54:04.793Z,100.00
2022-08-04T01:59:31.913Z,100.00
2022-08-04T02:04:56.592Z,100.00
2022-08-04T02:10:29.117Z,100.00
2022-08-04T02:15:59.562Z,100.00
2022-08-04T02:21:26.728Z,100.00
2022-08-04T02:27:06.764Z,100.00
2022-08-04T02:32:31.748Z,100.00
2022-08-04T02:38:04.957Z,100.00
2022-08-04T02:43:51.087Z,100.00
2022-08-04T02:49:12.344Z,100.00
2022-08-04T02:54:40.839Z,100.00
2022-08-04T03:00:09.592Z,100.00
2022-08-04T03:05:57.592Z,100.00
2022-08-04T03:11:52.802Z,100.00
2022-08-04T03:17:55.440Z,100.00
2022-08-04T03:23:34.741Z,100.00
2022-08-04T03:29:16.640Z,100.00
2022-08-04T03:35:22.842Z,100.00
2022-08-04T03:41:16.712Z,100.00
2022-08-04T03:47:29.959Z,100.00
2022-08-04T03:53:10.557Z,100.00
2022-08-04T03:58:44.873Z,100.00
2022-08-04T04:04:34.121Z,100.00
2022-08-04T04:10:09.445Z,100.00
2022-08-04T04:15:48.228Z,100.00
2022-08-04T04:21:36.930Z,100.00
2022-08-04T04:27:08.937Z,100.00
2022-08-04T04:32:37.564Z,100.00
2022-08-04T04:38:28.125Z,100.00
2022-08-04T04:44:36.244Z,100.00
2022-08-04T04:50:05.889Z,100.00
2022-08-04T04:55:35.171Z,100.00
2022-08-04T05:01:26.247Z,100.00
2022-08-04T05:07:01.784Z,100.00
2022-08-04T05:14:30.024Z,100.00
2022-08-04T05:18:24.475Z,100.00
2022-08-04T05:23:50.895Z,100.00
2022-08-04T05:29:23.246Z,100.00
2022-08-04T05:34:59.564Z,100.00
2022-08-04T05:40:23.892Z,100.00
2022-08-04T05:45:49.246Z,100.00
2022-08-04T05:51:13.132Z,100.00
2022-08-04T05:56:37.782Z,100.00
2022-08-04T06:02:03.512Z,100.00
2022-08-04T06:07:27.697Z,100.00
2022-08-04T06:12:53.994Z,100.00
2022-08-04T06:20:00.575Z,100.00
2022-08-04T06:24:28.835Z,100.00
2022-08-04T06:29:52.543Z,100.00
2022-08-04T06:35:18.758Z,100.00
2022-08-04T06:40:44.011Z,100.00
2022-08-04T06:46:07.485Z,100.00
2022-08-04T06:51:37.246Z,100.00
2022-08-04T06:57:03.713Z,100.00
2022-08-04T07:02:30.098Z,100.00
2022-08-04T07:07:56.398Z,100.00
2022-08-04T07:13:22.534Z,100.00
2022-08-04T07:18:45.856Z,100.00
2022-08-04T07:24:10.586Z,100.00
2022-08-04T07:29:34.499Z,100.00
2022-08-04T07:34:57.859Z,100.00
2022-08-04T07:40:24.401Z,100.00
2022-08-04T07:45:47.498Z,100.00
2022-08-04T07:51:11.477Z,100.00
2022-08-04T07:56:38.024Z,100.00
2022-08-04T08:02:02.352Z,100.00
2022-08-04T08:07:25.559Z,100.00
2022-08-04T08:12:52.258Z,100.00
2022-08-04T08:18:16.058Z,100.00
2022-08-04T08:23:39.838Z,100.00
2022-08-04T08:29:05.068Z,100.00
2022-08-04T08:34:30.454Z,100.00
2022-08-04T08:39:58.451Z,100.00
2022-08-04T08:45:47.989Z,100.00
2022-08-04T08:51:37.367Z,100.00
2022-08-04T08:57:13.864Z,100.00
2022-08-04T09:03:06.769Z,99.19
2022-08-04T09:08:54.163Z,97.21
2022-08-04T09:14:22.705Z,99.57
2022-08-04T09:19:56.748Z,97.30
2022-08-04T09:25:25.330Z,99.05
2022-08-04T09:30:53.827Z,100.00
2022-08-04T09:36:29.778Z,100.00
2022-08-04T09:42:01.325Z,100.00
2022-08-04T09:47:39.570Z,96.40
2022-08-04T09:53:47.041Z,98.65
2022-08-04T09:59:20.307Z,97.31
2022-08-04T10:04:45.253Z,94.13
2022-08-04T10:10:22.323Z,94.70
2022-08-04T10:15:54.581Z,95.10
2022-08-04T10:21:23.526Z,94.42
2022-08-04T10:26:57.349Z,95.00
2022-08-04T10:32:26.205Z,92.40
2022-08-04T10:38:01.800Z,93.00
2022-08-04T10:43:41.501Z,92.29
2022-08-04T10:49:09.033Z,92.70
2022-08-04T10:54:36.273Z,89.83
2022-08-04T11:00:04.030Z,90.99
2022-08-04T11:05:30.788Z,93.63
2022-08-04T11:11:02.400Z,91.37
2022-08-04T11:16:29.123Z,88.76
2022-08-04T11:21:57.394Z,82.80
2022-08-04T11:27:27.183Z,78.11
2022-08-04T11:32:57.792Z,74.09
2022-08-04T11:38:24.178Z,77.77
2022-08-04T11:44:03.159Z,75.06
2022-08-04T11:49:56.647Z,75.26
2022-08-04T11:55:22.409Z,78.59
2022-08-04T12:00:53.065Z,76.43
2022-08-04T12:06:22.039Z,76.70
2022-08-04T12:11:54.025Z,75.71
2022-08-04T12:17:23.967Z,78.16
2022-08-04T12:22:51.896Z,73.51
2022-08-04T12:28:19.777Z,77.42
2022-08-04T12:34:05.168Z,80.83
2022-08-04T12:39:31.798Z,80.14
2022-08-04T12:44:55.533Z,77.85
2022-08-04T12:50:18.841Z,74.69
2022-08-04T12:55:50.061Z,77.47
2022-08-04T13:02:09.627Z,75.10
2022-08-04T13:07:11.831Z,75.54
2022-08-04T13:12:37.030Z,80.44
2022-08-04T13:18:01.643Z,80.51
2022-08-04T13:23:27.975Z,79.43
2022-08-04T13:29:16.761Z,79.58
2022-08-04T13:34:42.836Z,77.16
2022-08-04T13:40:14.961Z,77.51
2022-08-04T13:45:42.255Z,80.95
2022-08-04T13:51:06.536Z,77.87
2022-08-04T13:56:32.423Z,83.99
2022-08-04T14:02:02.653Z,84.03
2022-08-04T14:07:27.885Z,84.08
2022-08-04T14:12:52.927Z,84.14
2022-08-04T14:18:22.123Z,86.24
2022-08-04T14:23:49.126Z,87.04
2022-08-04T14:29:28.506Z,84.06
2022-08-04T14:34:53.857Z,82.64
2022-08-04T14:40:30.789Z,81.58
2022-08-04T14:46:05.155Z,82.53
2022-08-04T14:51:36.223Z,83.22
2022-08-04T14:57:02.804Z,80.80
2022-08-04T15:02:26.717Z,75.07
2022-08-04T15:07:54.678Z,74.10
2022-08-04T15:13:18.095Z,73.79
2022-08-04T15:18:42.731Z,72.06
2022-08-04T15:24:13.371Z,74.68
2022-08-04T15:29:59.275Z,75.69
2022-08-04T15:35:32.011Z,80.27
2022-08-04T15:41:04.642Z,76.07
2022-08-04T15:47:11.491Z,78.81
2022-08-04T15:53:10.358Z,82.14
2022-08-04T15:58:50.492Z,88.27
2022-08-04T16:04:23.954Z,86.93
2022-08-04T16:09:48.710Z,84.02
2022-08-04T16:15:45.562Z,88.18
2022-08-04T16:21:19.497Z,89.56
2022-08-04T16:26:54.626Z,91.60
2022-08-04T16:32:26.061Z,94.45
2022-08-04T16:37:49.650Z,98.06
2022-08-04T16:43:14.540Z,99.72
2022-08-04T16:48:39.566Z,100.00
2022-08-04T16:54:05.567Z,100.00
2022-08-04T16:59:29.410Z,100.00
2022-08-04T17:05:06.912Z,100.00
2022-08-04T17:10:35.763Z,100.00
2022-08-04T17:16:00.845Z,100.00
2022-08-04T17:21:27.338Z,100.00
2022-08-04T17:26:53.725Z,100.00
2022-08-04T17:32:19.683Z,100.00
2022-08-04T17:37:52.874Z,100.00
2022-08-04T17:44:03.118Z,100.00
2022-08-04T17:49:02.319Z,100.00
2022-08-04T17:54:36.711Z,100.00
2022-08-04T18:00:00.868Z,100.00
2022-08-04T18:05:54.008Z,100.00
2022-08-04T18:11:21.991Z,100.00
2022-08-04T18:16:46.226Z,100.00
2022-08-04T18:22:16.788Z,100.00
2022-08-04T18:27:54.926Z,100.00
2022-08-04T18:33:39.992Z,100.00
2022-08-04T18:39:15.081Z,100.00
2022-08-04T18:44:51.919Z,100.00
2022-08-04T18:51:11.322Z,100.00
2022-08-04T18:56:02.113Z,100.00
2022-08-04T19:01:29.666Z,100.00
2022-08-04T19:07:28.664Z,100.00
2022-08-04T19:12:53.601Z,100.00
2022-08-04T19:18:20.324Z,100.00
2022-08-04T19:24:28.299Z,100.00
2022-08-04T19:29:37.783Z,100.00
2022-08-04T19:35:05.688Z,100.00
2022-08-04T19:40:33.548Z,100.00
2022-08-04T19:46:00.053Z,100.00
2022-08-04T19:51:24.681Z,100.00
2022-08-04T19:56:53.076Z,100.00
2022-08-04T20:02:18.622Z,100.00
2022-08-04T20:07:43.067Z,100.00
2022-08-04T20:13:10.531Z,100.00
2022-08-04T20:18:36.604Z,100.00
2022-08-04T20:24:38.132Z,100.00
2022-08-04T20:30:01.416Z,100.00
2022-08-04T20:35:26.960Z,100.00
2022-08-04T20:40:51.559Z,100.00
2022-08-04T20:46:29.001Z,100.00
2022-08-04T20:51:55.350Z,100.00
2022-08-04T20:57:47.426Z,100.00
2022-08-04T21:03:03.773Z,100.00
2022-08-04T21:08:27.125Z,100.00
2022-08-04T21:13:53.405Z,100.00
2022-08-04T21:19:22.420Z,100.00
2022-08-04T21:24:51.628Z,100.00
2022-08-04T21:30:23.927Z,100.00
2022-08-04T21:35:48.983Z,100.00
2022-08-04T21:41:24.213Z,100.00
2022-08-04T21:46:49.163Z,100.00
2022-08-04T21:52:14.368Z,100.00
2022-08-04T21:57:42.653Z,100.00
2022-08-04T22:08:50.890Z,100.00
2022-08-04T22:14:14.191Z,100.00
2022-08-04T22:19:50.739Z,100.00
2022-08-04T22:25:19.624Z,100.00
2022-08-04T22:30:51.924Z,100.00
2022-08-04T22:36:17.335Z,100.00
2022-08-04T22:42:03.008Z,100.00
2022-08-04T22:47:24.730Z,100.00
2022-08-04T22:52:49.636Z,100.00
2022-08-04T22:58:19.224Z,100.00
2022-08-04T23:03:50.925Z,100.00
2022-08-04T23:09:20.171Z,100.00
2022-08-04T23:14:46.117Z,100.00
2022-08-04T23:20:11.777Z,100.00
2022-08-04T23:26:07.183Z,100.00
2022-08-04T23:31:41.080Z,100.00
2022-08-04T23:37:14.709Z,100.00
2022-08-04T23:42:40.318Z,100.00
2022-08-04T23:48:15.313Z,100.00
2022-08-04T23:54:02.351Z,100.00
2022-08-04T23:59:51.977Z,100.00
